createdAt,value
2022-08-11T00:00:45.534Z,10.60
2022-08-11T00:03:20.875Z,10.10
2022-08-11T00:05:59.971Z,11.50
2022-08-11T00:08:35.867Z,10.80
2022-08-11T00:11:12.741Z,8.90
2022-08-11T00:13:50.836Z,10.30
2022-08-11T00:16:26.525Z,10.20
2022-08-11T00:19:00.894Z,10.10
2022-08-11T00:22:04.262Z,9.10
2022-08-11T00:24:54.700Z,10.40
2022-08-11T00:30:14.744Z,10.50
2022-08-11T00:32:57.376Z,9.60
2022-08-11T00:35:51.480Z,8.70
2022-08-11T00:38:31.696Z,11.10
2022-08-11T00:41:39.707Z,10.90
2022-08-11T00:44:33.512Z,10.90
2022-08-11T00:47:18.193Z,9.20
2022-08-11T00:49:50.939Z,8.30
2022-08-11T00:52:40.879Z,9.50
2022-08-11T00:55:55.572Z,11.20
2022-08-11T00:58:59.350Z,10.60
2022-08-11T01:02:09.947Z,10.10
2022-08-11T01:05:01.658Z,12.40
2022-08-11T01:08:03.779Z,10.60
2022-08-11T01:11:20.277Z,12.00
2022-08-11T01:14:26.865Z,10.80
2022-08-11T01:17:45.235Z,9.20
2022-08-11T01:20:53.256Z,9.50
2022-08-11T01:24:10.102Z,10.20
2022-08-11T01:27:19.607Z,9.80
2022-08-11T01:30:06.653Z,9.40
2022-08-11T01:33:04.853Z,10.60
2022-08-11T01:36:04.625Z,10.10
2022-08-11T01:38:57.932Z,9.30
2022-08-11T01:42:18.681Z,10.40
2022-08-11T01:45:26.188Z,12.60
2022-08-11T01:48:11.442Z,11.20
2022-08-11T01:50:53.609Z,9.00
2022-08-11T01:56:27.050Z,10.20
2022-08-11T01:59:23.363Z,9.70
2022-08-11T02:02:48.888Z,9.00
2022-08-11T02:05:39.301Z,10.00
2022-08-11T02:08:44.828Z,10.10
2022-08-11T02:11:37.241Z,10.00
2022-08-11T02:14:29.325Z,10.30
2022-08-11T02:17:14.891Z,10.50
2022-08-11T02:20:19.534Z,8.70
2022-08-11T02:24:05.789Z,9.90
2022-08-11T02:26:28.624Z,8.50
2022-08-11T02:29:07.313Z,10.40
2022-08-11T02:32:25.598Z,12.20
2022-08-11T02:35:25.572Z,9.10
2022-08-11T02:38:16.211Z,9.50
2022-08-11T02:41:02.285Z,11.90
2022-08-11T02:43:55.178Z,11.30
2022-08-11T02:46:51.460Z,10.50
2022-08-11T02:50:02.697Z,8.20
2022-08-11T02:53:20.003Z,10.50
2022-08-11T02:56:23.553Z,9.10
2022-08-11T02:59:27.239Z,12.10
2022-08-11T03:02:23.311Z,9.70
2022-08-11T03:05:19.012Z,12.20
2022-08-11T03:08:19.229Z,8.30
2022-08-11T03:11:28.212Z,9.50
2022-08-11T03:14:49.183Z,10.80
2022-08-11T03:17:34.118Z,9.50
2022-08-11T03:20:46.058Z,9.40
2022-08-11T03:23:29.323Z,9.50
2022-08-11T03:26:29.598Z,10.70
2022-08-11T03:29:30.849Z,10.40
2022-08-11T03:32:28.486Z,14.30
2022-08-11T03:35:05.668Z,10.10
2022-08-11T03:37:53.608Z,10.90
2022-08-11T03:42:02.854Z,11.20
2022-08-11T03:44:28.125Z,9.60
2022-08-11T03:47:06.914Z,12.00
2022-08-11T03:50:26.869Z,9.30
2022-08-11T03:53:31.205Z,10.60
2022-08-11T03:56:20.493Z,10.60
2022-08-11T03:58:55.872Z,10.40
2022-08-11T04:01:43.924Z,8.50
2022-08-11T04:04:51.701Z,9.80
2022-08-11T04:07:59.965Z,9.70
2022-08-11T04:10:54.494Z,12.50
2022-08-11T04:14:26.410Z,13.60
2022-08-11T04:17:22.779Z,11.50
2022-08-11T04:20:22.559Z,8.50
2022-08-11T04:24:13.086Z,11.80
2022-08-11T04:26:54.562Z,11.90
2022-08-11T04:30:03.849Z,9.80
2022-08-11T04:32:57.380Z,9.20
2022-08-11T04:35:36.609Z,10.60
2022-08-11T04:38:14.888Z,9.90
2022-08-11T04:41:17.013Z,10.10
2022-08-11T04:44:32.311Z,14.00
2022-08-11T04:47:14.448Z,9.10
2022-08-11T04:50:41.652Z,11.50
2022-08-11T04:54:28.479Z,10.10
2022-08-11T04:57:30.768Z,9.70
2022-08-11T05:00:28.784Z,9.70
2022-08-11T05:03:38.510Z,8.40
2022-08-11T05:06:11.711Z,8.40
2022-08-11T05:09:15.779Z,9.80
2022-08-11T05:12:30.300Z,8.20
2022-08-11T05:15:24.267Z,8.30
2022-08-11T05:18:34.740Z,9.50
2022-08-11T05:21:44.857Z,9.40
2022-08-11T05:25:03.004Z,9.00
2022-08-11T05:28:01.014Z,12.30
2022-08-11T05:30:53.153Z,9.60
2022-08-11T05:33:58.565Z,9.30
2022-08-11T05:37:25.286Z,7.20
2022-08-11T05:40:31.911Z,10.20
2022-08-11T05:43:33.052Z,11.50
2022-08-11T05:46:28.071Z,7.10
2022-08-11T05:49:19.795Z,8.80
2022-08-11T05:52:12.818Z,8.10
2022-08-11T05:55:09.069Z,7.80
2022-08-11T05:57:51.104Z,9.60
2022-08-11T06:00:27.189Z,9.00
2022-08-11T06:03:07.870Z,11.10
2022-08-11T06:05:44.033Z,10.10
2022-08-11T06:08:18.264Z,10.60
2022-08-11T06:10:54.289Z,10.60
2022-08-11T06:13:29.623Z,9.40
2022-08-11T06:16:06.796Z,9.20
2022-08-11T06:18:51.851Z,8.00
2022-08-11T06:21:40.557Z,8.50
2022-08-11T06:24:16.270Z,8.50
2022-08-11T06:27:11.727Z,7.40
2022-08-11T06:29:55.723Z,7.00
2022-08-11T06:32:37.826Z,8.00
2022-08-11T06:35:38.939Z,11.20
2022-08-11T06:38:35.886Z,9.30
2022-08-11T06:41:32.724Z,9.40
2022-08-11T06:44:18.679Z,9.20
2022-08-11T06:47:01.781Z,8.30
2022-08-11T06:50:09.224Z,8.60
2022-08-11T06:52:43.029Z,9.00
2022-08-11T06:55:56.923Z,10.00
2022-08-11T06:58:59.543Z,7.90
2022-08-11T07:02:22.117Z,8.10
2022-08-11T07:05:10.964Z,8.30
2022-08-11T07:08:41.512Z,8.80
2022-08-11T07:11:35.571Z,6.60
2022-08-11T07:14:28.656Z,8.60
2022-08-11T07:17:02.740Z,9.00
2022-08-11T07:19:56.878Z,8.70
2022-08-11T07:23:12.733Z,10.10
2022-08-11T07:26:07.659Z,8.00
2022-08-11T07:28:59.928Z,8.40
2022-08-11T07:31:44.444Z,9.40
2022-08-11T07:34:28.535Z,9.00
2022-08-11T07:37:13.090Z,9.90
2022-08-11T07:39:48.700Z,11.40
2022-08-11T07:42:30.589Z,8.10
2022-08-11T07:45:24.419Z,7.60
2022-08-11T07:48:17.187Z,7.00
2022-08-11T07:51:11.696Z,10.30
2022-08-11T07:53:58.541Z,7.80
2022-08-11T07:56:55.106Z,8.40
2022-08-11T08:00:04.537Z,8.60
2022-08-11T08:03:07.198Z,8.10
2022-08-11T08:06:00.153Z,7.90
2022-08-11T08:08:54.094Z,5.90
2022-08-11T08:11:48.057Z,9.60
2022-08-11T08:14:41.115Z,7.30
2022-08-11T08:17:33.143Z,9.20
2022-08-11T08:20:13.087Z,8.80
2022-08-11T08:22:48.713Z,8.90
2022-08-11T08:25:24.075Z,6.80
2022-08-11T08:27:59.687Z,7.20
2022-08-11T08:30:51.220Z,7.20
2022-08-11T08:33:26.409Z,7.80
2022-08-11T08:36:20.589Z,7.30
2022-08-11T08:38:56.320Z,7.70
2022-08-11T08:41:35.184Z,7.30
2022-08-11T08:44:37.203Z,8.60
2022-08-11T08:47:41.998Z,10.80
2022-08-11T08:50:27.785Z,9.00
2022-08-11T08:53:08.879Z,7.50
2022-08-11T08:55:45.538Z,8.30
2022-08-11T08:58:21.480Z,7.90
2022-08-11T09:00:56.857Z,8.40
2022-08-11T09:04:02.829Z,5.90
2022-08-11T09:06:26.997Z,9.00
2022-08-11T09:09:02.547Z,7.20
2022-08-11T09:11:54.259Z,10.30
2022-08-11T09:14:53.663Z,7.30
2022-08-11T09:17:28.084Z,10.20
2022-08-11T09:20:19.994Z,8.80
2022-08-11T09:24:07.882Z,7.60
2022-08-11T09:26:30.449Z,6.80
2022-08-11T09:29:05.780Z,8.10
2022-08-11T09:31:40.628Z,7.10
2022-08-11T09:34:15.905Z,11.10
2022-08-11T09:37:08.979Z,7.60
2022-08-11T09:40:03.318Z,6.40
2022-08-11T09:42:55.714Z,7.60
2022-08-11T09:45:40.141Z,9.50
2022-08-11T09:48:18.570Z,5.90
2022-08-11T09:50:54.228Z,7.70
2022-08-11T09:53:36.808Z,8.40
2022-08-11T09:56:45.073Z,7.10
2022-08-11T09:59:20.938Z,9.20
2022-08-11T10:02:03.785Z,7.40
2022-08-11T10:04:48.912Z,10.20
2022-08-11T10:07:27.748Z,6.70
2022-08-11T10:10:06.208Z,6.20
2022-08-11T10:12:44.326Z,5.10
2022-08-11T10:15:38.950Z,5.50
2022-08-11T10:18:38.140Z,6.90
2022-08-11T10:21:31.100Z,11.40
2022-08-11T10:24:24.067Z,7.30
2022-08-11T10:27:03.512Z,9.50
2022-08-11T10:30:02.065Z,7.80
2022-08-11T10:32:58.454Z,5.70
2022-08-11T10:35:36.758Z,7.20
2022-08-11T10:38:11.184Z,8.90
2022-08-11T10:41:10.229Z,5.60
2022-08-11T10:44:01.850Z,6.20
2022-08-11T10:46:59.085Z,8.10
2022-08-11T10:49:34.598Z,7.50
2022-08-11T10:52:27.136Z,7.60
2022-08-11T10:55:19.389Z,6.50
2022-08-11T10:58:11.639Z,8.10
2022-08-11T11:00:47.167Z,7.10
2022-08-11T11:03:23.964Z,7.00
2022-08-11T11:06:27.922Z,7.50
2022-08-11T11:09:15.053Z,8.50
2022-08-11T11:12:19.453Z,7.10
2022-08-11T11:15:17.714Z,8.80
2022-08-11T11:18:14.544Z,9.20
2022-08-11T11:20:56.166Z,7.40
2022-08-11T11:23:47.795Z,6.40
2022-08-11T11:26:30.158Z,7.40
2022-08-11T11:29:32.897Z,8.50
2022-08-11T11:32:23.010Z,9.30
2022-08-11T11:35:21.582Z,9.50
2022-08-11T11:38:04.074Z,7.60
2022-08-11T11:40:41.883Z,6.90
2022-08-11T11:43:16.261Z,8.30
2022-08-11T11:45:51.013Z,7.20
2022-08-11T11:48:29.808Z,7.50
2022-08-11T11:51:03.744Z,7.10
2022-08-11T11:53:37.111Z,6.70
2022-08-11T11:56:11.245Z,6.10
2022-08-11T11:59:04.346Z,7.20
2022-08-11T12:01:38.072Z,9.80
2022-08-11T12:04:14.827Z,7.30
2022-08-11T12:06:49.057Z,6.90
2022-08-11T12:09:24.143Z,6.70
2022-08-11T12:12:17.599Z,7.00
2022-08-11T12:14:51.873Z,7.90
2022-08-11T12:17:26.326Z,6.80
2022-08-11T12:20:01.748Z,6.30
2022-08-11T12:22:57.307Z,9.00
2022-08-11T12:28:36.588Z,10.70
2022-08-11T12:31:11.934Z,5.60
2022-08-11T12:33:45.851Z,8.20
2022-08-11T12:36:23.443Z,7.20
2022-08-11T12:38:59.969Z,7.60
2022-08-11T12:42:02.989Z,6.50
2022-08-11T12:44:55.619Z,8.00
2022-08-11T12:48:12.236Z,6.90
2022-08-11T12:51:07.322Z,7.50
2022-08-11T12:53:47.327Z,8.10
2022-08-11T12:56:41.460Z,7.30
2022-08-11T12:59:35.013Z,7.20
2022-08-11T13:02:29.960Z,6.40
2022-08-11T13:05:17.969Z,7.80
2022-08-11T13:07:54.209Z,7.70
2022-08-11T13:10:47.456Z,7.40
2022-08-11T13:13:52.753Z,7.40
2022-08-11T13:16:24.795Z,6.80
2022-08-11T13:19:03.403Z,7.30
2022-08-11T13:21:37.429Z,7.40
2022-08-11T13:24:10.599Z,8.70
2022-08-11T13:26:49.909Z,7.30
2022-08-11T13:29:28.463Z,7.60
2022-08-11T13:32:03.035Z,5.50
2022-08-11T13:34:42.541Z,9.00
2022-08-11T13:37:19.090Z,7.30
2022-08-11T13:39:53.791Z,7.50
2022-08-11T13:42:27.446Z,8.70
2022-08-11T13:45:02.223Z,7.30
2022-08-11T13:47:39.479Z,6.80
2022-08-11T13:50:15.103Z,9.50
2022-08-11T13:52:53.294Z,7.00
2022-08-11T13:55:50.786Z,7.60
2022-08-11T13:58:40.781Z,7.50
2022-08-11T14:02:19.222Z,8.10
2022-08-11T14:04:29.180Z,7.10
2022-08-11T14:07:09.973Z,6.60
2022-08-11T14:09:47.392Z,6.80
2022-08-11T14:12:52.738Z,7.00
2022-08-11T14:15:33.667Z,7.50
2022-08-11T14:18:11.419Z,6.00
2022-08-11T14:21:07.613Z,8.00
2022-08-11T14:23:47.007Z,6.70
2022-08-11T14:26:27.013Z,8.40
2022-08-11T14:29:13.666Z,8.30
2022-08-11T14:32:03.130Z,8.50
2022-08-11T14:34:38.172Z,6.90
2022-08-11T14:37:18.237Z,9.00
2022-08-11T14:40:22.913Z,8.90
2022-08-11T14:43:17.354Z,6.40
2022-08-11T14:46:10.767Z,9.50
2022-08-11T14:48:43.829Z,6.20
2022-08-11T14:51:17.128Z,7.10
2022-08-11T14:54:11.993Z,9.40
2022-08-11T14:56:46.688Z,8.30
2022-08-11T14:59:20.964Z,7.80
2022-08-11T15:02:13.710Z,6.90
2022-08-11T15:04:47.595Z,8.10
2022-08-11T15:07:31.663Z,8.10
2022-08-11T15:10:13.022Z,7.30
2022-08-11T15:12:48.987Z,8.50
2022-08-11T15:15:43.262Z,8.60
2022-08-11T15:18:19.120Z,7.80
2022-08-11T15:21:12.304Z,7.80
2022-08-11T15:24:12.709Z,7.00
2022-08-11T15:27:05.402Z,7.30
2022-08-11T15:30:00.714Z,7.90
2022-08-11T15:32:55.556Z,7.40
2022-08-11T15:35:49.251Z,8.40
2022-08-11T15:38:24.399Z,7.20
2022-08-11T15:41:24.595Z,6.00
2022-08-11T15:44:18.314Z,7.70
2022-08-11T15:47:02.489Z,6.30
2022-08-11T15:50:11.502Z,6.70
2022-08-11T15:52:45.642Z,6.70
2022-08-11T15:55:21.382Z,7.10
2022-08-11T15:58:16.045Z,6.80
2022-08-11T16:01:10.392Z,7.70
2022-08-11T16:04:13.437Z,7.60
2022-08-11T16:07:00.184Z,8.20
2022-08-11T16:09:54.130Z,8.20
2022-08-11T16:13:05.304Z,5.80
2022-08-11T16:16:18.934Z,6.30
2022-08-11T16:18:57.606Z,6.50
2022-08-11T16:21:36.516Z,6.30
2022-08-11T16:27:05.987Z,6.70
2022-08-11T16:27:14.434Z,8.00
2022-08-11T16:29:52.915Z,6.60
2022-08-11T16:32:28.054Z,7.60
2022-08-11T16:35:31.138Z,7.20
2022-08-11T16:38:25.200Z,8.30
2022-08-11T16:41:00.855Z,7.50
2022-08-11T16:43:56.140Z,5.40
2022-08-11T16:46:50.418Z,8.10
2022-08-11T16:49:34.254Z,7.50
2022-08-11T16:52:13.917Z,8.80
2022-08-11T16:54:49.017Z,8.40
2022-08-11T16:57:48.338Z,8.20
2022-08-11T17:00:22.147Z,9.30
2022-08-11T17:03:18.836Z,7.10
2022-08-11T17:06:14.265Z,8.00
2022-08-11T17:09:19.018Z,6.80
2022-08-11T17:12:24.295Z,7.00
2022-08-11T17:15:03.038Z,8.50
2022-08-11T17:17:42.970Z,7.00
2022-08-11T17:20:43.431Z,7.60
2022-08-11T17:23:35.835Z,7.50
2022-08-11T17:26:15.295Z,7.70
2022-08-11T17:28:54.794Z,9.80
2022-08-11T17:31:49.633Z,8.60
2022-08-11T17:34:42.681Z,10.10
2022-08-11T17:37:18.083Z,7.50
2022-08-11T17:39:56.232Z,9.40
2022-08-11T17:42:52.948Z,7.40
2022-08-11T17:45:48.446Z,8.50
2022-08-11T17:48:29.696Z,7.50
2022-08-11T17:51:08.845Z,11.20
2022-08-11T17:54:24.376Z,9.50
2022-08-11T17:57:21.291Z,8.60
2022-08-11T17:59:58.202Z,8.20
2022-08-11T18:02:57.917Z,9.90
2022-08-11T18:05:44.664Z,9.20
2022-08-11T18:08:39.638Z,9.80
2022-08-11T18:12:06.894Z,9.40
2022-08-11T18:14:49.295Z,10.00
2022-08-11T18:17:41.457Z,10.50
2022-08-11T18:23:40.656Z,8.80
2022-08-11T18:26:45.013Z,9.60
2022-08-11T18:29:42.495Z,8.50
2022-08-11T18:32:49.765Z,8.90
2022-08-11T18:35:45.823Z,8.50
2022-08-11T18:38:39.121Z,10.50
2022-08-11T18:41:33.792Z,7.80
2022-08-11T18:44:32.254Z,9.70
2022-08-11T18:47:31.065Z,9.40
2022-08-11T18:50:38.628Z,9.10
2022-08-11T18:53:36.456Z,11.40
2022-08-11T18:56:29.411Z,9.50
2022-08-11T18:59:24.456Z,9.20
2022-08-11T19:02:17.560Z,10.90
2022-08-11T19:05:11.147Z,8.40
2022-08-11T19:08:06.374Z,10.30
2022-08-11T19:10:59.704Z,13.00
2022-08-11T19:13:53.375Z,11.30
2022-08-11T19:16:47.241Z,8.70
2022-08-11T19:19:42.241Z,8.60
2022-08-11T19:22:37.655Z,8.70
2022-08-11T19:25:32.233Z,12.00
2022-08-11T19:28:27.455Z,8.90
2022-08-11T19:31:20.119Z,10.30
2022-08-11T19:34:15.494Z,15.00
2022-08-11T19:37:09.711Z,10.70
2022-08-11T19:40:03.909Z,10.90
2022-08-11T19:42:58.133Z,10.40
2022-08-11T19:45:52.279Z,10.90
2022-08-11T19:48:46.327Z,13.50
2022-08-11T19:51:40.420Z,12.40
2022-08-11T19:54:33.632Z,10.20
2022-08-11T19:57:26.845Z,11.30
2022-08-11T20:00:21.149Z,11.30
2022-08-11T20:03:18.784Z,10.80
2022-08-11T20:06:12.341Z,13.10
2022-08-11T20:09:10.857Z,15.80
2022-08-11T20:12:06.677Z,20.50
2022-08-11T20:15:03.700Z,14.00
2022-08-11T20:17:58.401Z,16.60
2022-08-11T20:20:52.389Z,12.70
2022-08-11T20:23:44.927Z,13.20
2022-08-11T20:26:37.358Z,14.00
2022-08-11T20:29:30.413Z,11.50
2022-08-11T20:32:23.047Z,13.60
2022-08-11T20:35:15.727Z,15.00
2022-08-11T20:38:13.620Z,18.20
2022-08-11T20:41:06.452Z,18.20
2022-08-11T20:44:07.549Z,15.70
2022-08-11T20:47:06.676Z,20.90
2022-08-11T20:50:09.054Z,22.20
2022-08-11T20:53:13.687Z,16.00
2022-08-11T20:56:10.668Z,17.60
2022-08-11T20:59:21.990Z,17.10
2022-08-11T21:02:19.722Z,18.30
2022-08-11T21:05:15.849Z,18.10
2022-08-11T21:08:25.481Z,17.50
2022-08-11T21:11:27.631Z,16.90
2022-08-11T21:14:27.867Z,18.70
2022-08-11T21:17:27.945Z,19.00
2022-08-11T21:20:26.392Z,17.20
2022-08-11T21:23:24.812Z,15.90
2022-08-11T21:26:28.444Z,14.80
2022-08-11T21:29:22.729Z,12.90
2022-08-11T21:32:16.406Z,14.30
2022-08-11T21:35:12.486Z,16.20
2022-08-11T21:38:07.253Z,14.20
2022-08-11T21:41:04.692Z,16.10
2022-08-11T21:44:01.799Z,14.50
2022-08-11T21:46:55.212Z,17.40
2022-08-11T21:49:48.991Z,16.70
2022-08-11T21:52:42.017Z,14.50
2022-08-11T21:55:34.874Z,17.70
2022-08-11T21:58:28.322Z,16.70
2022-08-11T22:01:20.500Z,15.00
2022-08-11T22:04:13.139Z,17.40
2022-08-11T22:07:06.030Z,18.70
2022-08-11T22:09:58.544Z,17.10
2022-08-11T22:12:51.439Z,19.10
2022-08-11T22:15:44.292Z,16.40
2022-08-11T22:18:37.705Z,17.00
2022-08-11T22:22:01.471Z,18.00
2022-08-11T22:24:48.899Z,18.20
2022-08-11T22:27:42.489Z,20.00
2022-08-11T22:30:34.706Z,19.30
2022-08-11T22:33:28.973Z,17.20
2022-08-11T22:36:22.594Z,19.10
2022-08-11T22:39:16.282Z,18.60
2022-08-11T22:42:08.466Z,20.10
2022-08-11T22:45:00.705Z,19.90
2022-08-11T22:47:53.374Z,19.70
2022-08-11T22:50:47.508Z,21.50
2022-08-11T22:53:55.269Z,22.60
2022-08-11T22:56:55.003Z,23.50
2022-08-11T22:59:50.841Z,20.80
2022-08-11T23:02:46.844Z,22.70
2022-08-11T23:05:39.756Z,20.40
2022-08-11T23:08:32.152Z,15.80
2022-08-11T23:11:25.562Z,22.30
2022-08-11T23:14:41.237Z,21.90
2022-08-11T23:17:44.726Z,23.60
2022-08-11T23:20:55.649Z,21.30
2022-08-11T23:23:53.055Z,20.50
2022-08-11T23:29:39.761Z,20.30
2022-08-11T23:32:32.415Z,21.20
2022-08-11T23:35:53.969Z,20.10
2022-08-11T23:38:54.962Z,22.50
2022-08-11T23:41:53.371Z,19.50
2022-08-11T23:44:46.319Z,21.50
2022-08-11T23:47:50.764Z,16.20
2022-08-11T23:50:45.771Z,21.80
2022-08-11T23:53:37.942Z,19.10
2022-08-11T23:59:22.936Z,20.90
